Share

Ha Noi, Viet Nam

Noibai International (VVNB) Elev 36 ft | 21.22 °N, 105.81 °E | Change Station

Current weather conditions updated 17 minutes ago

Mostly Cloudy
Mostly Cloudy
81 °F
Feels Like 86 °F
N
6
Wind Variable Wind from SE
Sunrise 5:35 AM
Sunset 6:17 PM
Moon Waning Gibbous

Today is forecast to be Much Warmer than yesterday. Scattered thunderstorms tonight.

Pressure 29.80 in
Visibility 4.3 miles
Clouds Scattered Clouds 800 ft
Mostly Cloudy 2000 ft
Heat Index 86 °F
Dew Point 75 °F
Humidity 84%
Rainfall 0.00 in
Snow Depth Not available.
UV 7 out of 16
Pollen Not available.
Air Quality Not available.
Flu Activity Not available.
METAR VVNB 190300Z 14005KT 110V170 7000 SCT008 BKN020 27/24 Q1009 NOSIG

More Conditions Fewer Conditions

Pressure 29.80 in
Visibility 4.3 miles
Clouds Scattered Clouds 800 ft
Mostly Cloudy 2000 ft
Heat Index 86 °F
Dew Point 75 °F
Humidity 84%
Rainfall 0.00 in
Snow Depth Not available.
UV 7 out of 16
Pollen Not available.
Air Quality Not available.
Flu Activity Not available.
METAR VVNB 190300Z 14005KT 110V170 7000 SCT008 BKN020 27/24 Q1009 NOSIG

More Conditions Fewer Conditions

10-Day Weather Forecast

Almanac

Astronomy

Apr. 19, 2014 Rise Set
Actual Time 5:35 AM ICT 6:17 PM ICT
Civil Twilight 5:12 AM ICT 6:39 PM ICT
Nautical Twilight 4:45 AM ICT 7:06 PM ICT
Astronomical Twilight 4:18 AM ICT 7:33 PM ICT
Moon 10:11 PM ICT 8:39 AM ICT
Length of Visible Light 13h 27m
Length of Day
12h 41m
Tomorrow will be 1m 7s longer.
Waning Gibbous, 83% of the Moon is Illuminated
Apr 18
Waning Gibbous
Apr 22
Last Quarter
Apr 29
New
May 6
First Quarter
May 14
Full

Yesterday's Extremes

Country Highs Country Lows

Community

  • Sunset Silhouettes
    Sunset Silhouettes
  • FL sunset Perico Isle
    FL sunset Perico Isle
  • Cloudy spring view
    Cloudy spring view
  • Old barn
    Old barn
  • What's for Lunch?
    What's for Lunch?

WunderPhotos

Upload Photos

1,702,619 photos uploaded!

WunderBlogs® & News

Nearby

Snow Depth

Not available.

Coastal Water Temperatures

Place Temperature
No Stations Reporting

Earthquake Activity

City Distance Mag. Time & Date
No recent earthquake activity has been reported nearby.
Minimum magnitude displayed is 2.5.

Nearby Weather Stations

There are no personal weather stations in this area.

What do you think?

We're not finished. Please let us know what you like, what you don't like, and what you are still missing.